Terminal Aerodrome Forecast
Issued by NWS King Salmon, AK

Home | Current Version | Previous Version | Text Only | Print | Product List | Glossary On
Versions: 1 2 3 4 5 6 7 8 9 10 11 12 13 14 15 16 17 18 19 20 21 22 23 24 25 26 27 28 29 30 31 32
000
FTAK31 PANC 271734
TAFAKN
TAF
PAKN 271734Z 2718/2818 11009KT P6SM VCSH SCT050 OVC090
     FM272100 13012G20KT P6SM VCSH SCT025 BKN050 OVC070
     FM280400 05007KT P6SM VCSH BKN035 OVC060
     FM281200 03009KT P6SM -SHRA BKN025 OVC040=

USA.gov is the U.S. government's official web portal to all federal, state and local government web resources and services.